METAR Data
IDs: Format: Raw Decoded Include TAF

Data at: 0256 UTC 25 Feb 2021

RKSM 250200Z 36001KT 9999 BKN150 05/M10 A3029